Time;durP1;ratioP1;P1;durP2;ratioP2;P2;SDS_P1;SDS_P2;PMS_P1;PMS_P2;Temp;Humidity;BMP_temperature;BMP_pressure;BME280_temperature;BME280_humidity;BME280_pressure;Samples;Min_cycle;Max_cycle;Signal;HPM_P1;HPM_P2
2022/08/01 03:53:49;;;;;;;13.35;4.25;;;23.50;99.90;;;;;;5983300;23;20027;31
2022/08/01 05:21:26;;;;;;;16.35;4.25;;;31.70;99.90;;;;;;5143640;23;19938;-89
2022/08/01 05:23:52;;;;;;;11.68;4.32;;;32.00;99.90;;;;;;4903634;29;20490;-89
2022/08/01 05:26:19;;;;;;;8.57;3.60;;;32.10;99.90;;;;;;4903827;29;20036;-90
2022/08/01 05:28:45;;;;;;;11.95;4.53;;;31.90;99.90;;;;;;4903658;29;20491;-90
2022/08/01 05:31:12;;;;;;;14.18;4.40;;;32.00;99.90;;;;;;4903463;29;20088;-89
2022/08/01 05:33:39;;;;;;;9.57;4.10;;;31.40;99.90;;;;;;4903727;29;20115;-89
2022/08/01 05:36:05;;;;;;;9.32;3.63;;;31.60;99.90;;;;;;4903693;29;20036;-89
2022/08/01 05:38:32;;;;;;;14.07;4.97;;;31.90;99.90;;;;;;4903766;29;20040;-89
2022/08/01 05:40:58;;;;;;;10.63;4.95;;;32.10;99.90;;;;;;4903295;29;20482;-88
2022/08/01 05:43:28;;;;;;;7.68;4.55;;;32.00;99.90;;;;;;4903480;29;20032;-90
2022/08/01 05:45:55;;;;;;;9.57;4.88;;;32.40;99.90;;;;;;4903843;29;20059;-89
2022/08/01 05:48:21;;;;;;;7.80;5.25;;;32.50;99.90;;;;;;4903260;29;20024;-89
2022/08/01 05:50:48;;;;;;;10.88;5.22;;;32.90;99.90;;;;;;4903263;29;20038;-90
2022/08/01 05:53:14;;;;;;;10.10;5.30;;;32.70;99.90;;;;;;4903299;29;20132;-89
2022/08/01 05:55:41;;;;;;;10.15;4.68;;;32.10;99.90;;;;;;4902934;29;20119;-89
2022/08/01 05:58:08;;;;;;;8.35;5.43;;;32.50;99.90;;;;;;4903888;29;20031;-90
2022/08/01 06:00:35;;;;;;;11.70;5.30;;;32.80;99.90;;;;;;4902929;29;20490;-89
2022/08/01 06:03:02;;;;;;;9.23;5.35;;;32.50;99.90;;;;;;4902990;29;20059;-90
2022/08/01 06:05:28;;;;;;;9.20;5.20;;;32.00;99.90;;;;;;4902880;29;20458;-90
2022/08/01 06:07:55;;;;;;;10.05;4.78;;;32.20;99.90;;;;;;4902971;29;20060;-92
2022/08/01 06:10:22;;;;;;;9.43;5.40;;;32.00;99.90;;;;;;4902991;29;20032;-90
2022/08/01 06:12:51;;;;;;;9.77;5.43;;;32.20;99.90;;;;;;4902783;29;20059;-90
2022/08/01 06:15:18;;;;;;;7.50;4.95;;;32.20;99.90;;;;;;4902898;29;20040;-91
2022/08/01 06:17:44;;;;;;;6.93;5.40;;;32.40;99.90;;;;;;4902612;29;20048;-91
2022/08/01 06:20:11;;;;;;;14.52;5.53;;;32.20;99.90;;;;;;4902736;29;20051;-92
2022/08/01 06:22:38;;;;;;;10.50;5.35;;;32.20;99.90;;;;;;4887270;29;20036;-90
2022/08/01 06:25:26;;;;;;;6.60;4.82;;;32.20;99.90;;;;;;4903233;29;20035;-91
2022/08/01 06:27:54;;;;;;;7.78;5.35;;;32.40;99.90;;;;;;4902841;29;20035;-89
2022/08/01 06:30:58;;;;;;;9.15;5.50;;;32.60;99.90;;;;;;4902399;29;20028;-92
2022/08/01 06:33:28;;;;;;;10.80;5.70;;;32.60;99.90;;;;;;4902642;29;20078;-91
2022/08/01 06:35:55;;;;;;;9.77;5.65;;;32.50;99.90;;;;;;4901973;29;20036;-90
2022/08/01 06:38:25;;;;;;;9.18;6.13;;;32.40;99.90;;;;;;4902923;29;20032;-91
2022/08/01 06:40:51;;;;;;;9.75;6.78;;;32.10;99.90;;;;;;4902387;29;20115;-91
2022/08/01 06:43:19;;;;;;;11.98;7.00;;;32.20;99.90;;;;;;4902355;29;20036;-93
2022/08/01 06:45:49;;;;;;;8.98;6.68;;;32.10;99.90;;;;;;4902278;29;20059;-90
2022/08/01 06:48:39;;;;;;;9.70;6.93;;;32.20;99.90;;;;;;4902263;29;20032;-92
2022/08/01 06:51:09;;;;;;;9.82;8.10;;;32.40;99.90;;;;;;4903258;29;20079;-91
2022/08/01 06:53:37;;;;;;;10.40;7.28;;;32.90;99.90;;;;;;4905590;29;20532;-90
2022/08/01 06:56:05;;;;;;;11.60;7.63;;;32.80;99.90;;;;;;4903798;29;20036;-93
2022/08/01 06:58:34;;;;;;;9.65;7.00;;;32.90;99.90;;;;;;4905475;29;20032;-91
2022/08/01 07:01:19;;;;;;;11.63;7.10;;;32.50;99.90;;;;;;4904352;29;20033;-91
2022/08/01 07:03:46;;;;;;;10.73;7.25;;;32.20;99.90;;;;;;4907437;29;20171;-90
2022/08/01 07:06:19;;;;;;;11.38;7.57;;;32.30;99.90;;;;;;4908037;29;20031;-91
2022/08/01 07:08:47;;;;;;;7.45;6.43;;;32.10;99.90;;;;;;4891498;29;20032;-90
2022/08/01 07:11:14;;;;;;;12.50;6.40;;;31.90;99.90;;;;;;4907178;29;20037;-92
2022/08/01 07:13:40;;;;;;;8.63;6.72;;;32.30;99.90;;;;;;4905788;29;20132;-89
2022/08/01 07:16:07;;;;;;;13.30;7.38;;;32.30;99.90;;;;;;4904118;29;20115;-92
2022/08/01 07:18:46;;;;;;;16.77;6.65;;;32.40;99.90;;;;;;4904334;29;20462;-90
2022/08/01 07:21:19;;;;;;;7.80;6.32;;;32.60;99.90;;;;;;4904766;29;20064;-89
2022/08/01 07:23:45;;;;;;;11.93;6.95;;;32.70;99.90;;;;;;4903944;29;20032;-91
2022/08/01 07:26:13;;;;;;;11.68;6.38;;;33.30;99.90;;;;;;4904902;29;20063;-90
2022/08/01 07:28:43;;;;;;;13.18;6.80;;;33.00;99.90;;;;;;4883103;29;20472;-90
2022/08/01 07:31:10;;;;;;;7.70;6.55;;;33.70;99.90;;;;;;4883803;29;20441;-91
2022/08/01 07:33:37;;;;;;;11.98;7.15;;;33.70;99.90;;;;;;4865792;29;20522;-92
2022/08/01 07:36:40;;;;;;;8.38;6.78;;;33.40;99.90;;;;;;4879916;29;20037;-92
2022/08/01 07:39:07;;;;;;;6.50;5.88;;;32.80;99.90;;;;;;4864226;29;20040;-88
2022/08/01 07:41:34;;;;;;;12.88;6.38;;;32.50;99.90;;;;;;4863372;29;20025;-95
2022/08/01 07:44:00;;;;;;;12.25;7.20;;;32.60;99.90;;;;;;4879111;29;20395;-91
2022/08/01 07:46:26;;;;;;;12.52;6.90;;;32.80;99.90;;;;;;4878896;29;20033;-91
2022/08/01 07:48:53;;;;;;;8.95;6.07;;;32.60;99.90;;;;;;4862753;29;20065;-89
2022/08/01 07:51:19;;;;;;;9.02;6.55;;;32.70;99.90;;;;;;4879172;29;20042;-90
2022/08/01 07:53:46;;;;;;;8.35;6.88;;;32.60;99.90;;;;;;4880391;29;20065;-91
2022/08/01 07:56:16;;;;;;;10.98;7.40;;;32.90;99.90;;;;;;4878944;29;20047;-89
2022/08/01 07:58:42;;;;;;;10.75;6.53;;;32.70;99.90;;;;;;4878712;29;20067;-91
2022/08/01 08:01:09;;;;;;;7.85;6.53;;;32.60;99.90;;;;;;4879173;29;20025;-92
2022/08/01 08:03:35;;;;;;;16.92;7.18;;;32.80;99.90;;;;;;4879230;29;20136;-92
2022/08/01 08:06:02;;;;;;;11.63;7.03;;;32.90;99.90;;;;;;4885902;29;20189;-90
2022/08/01 08:08:34;;;;;;;8.52;7.72;;;32.90;99.90;;;;;;4903033;29;20088;-92
2022/08/01 08:13:52;;;;;;;11.45;9.07;;;33.20;99.90;;;;;;5459569;23;20731;-93
2022/08/01 08:16:20;;;;;;;10.63;8.80;;;33.20;99.90;;;;;;4902674;29;20032;-93
2022/08/01 08:18:47;;;;;;;10.13;9.00;;;33.20;99.90;;;;;;4902368;29;20031;-93
2022/08/01 08:21:13;;;;;;;9.50;8.63;;;32.80;99.90;;;;;;4902561;29;20401;-93
2022/08/01 08:26:26;;;;;;;9.40;8.50;;;32.80;99.90;;;;;;4903270;29;20028;-93
2022/08/01 08:28:59;;;;;;;9.98;8.73;;;32.70;99.90;;;;;;4885765;29;20046;-94
2022/08/01 08:31:25;;;;;;;10.65;9.00;;;33.10;99.90;;;;;;4903797;29;20025;-93
2022/08/01 08:33:52;;;;;;;9.55;8.82;;;33.30;99.90;;;;;;4909047;29;20059;-92
2022/08/01 08:36:18;;;;;;;10.30;9.55;;;32.90;99.90;;;;;;4904008;29;20035;-92
2022/08/01 08:38:45;;;;;;;10.05;9.05;;;32.90;99.90;;;;;;4897445;29;20023;-93
2022/08/01 08:41:13;;;;;;;10.48;9.27;;;32.70;99.90;;;;;;4916323;29;20031;-92
2022/08/01 08:43:40;;;;;;;12.40;9.05;;;32.70;99.90;;;;;;4899313;29;20052;-93
2022/08/01 08:46:09;;;;;;;11.38;9.70;;;32.90;99.90;;;;;;4918099;29;20032;-92
2022/08/01 08:48:37;;;;;;;15.27;9.43;;;33.20;99.90;;;;;;4913502;29;20035;-92
2022/08/01 08:51:10;;;;;;;11.43;10.20;;;33.30;99.90;;;;;;4900412;29;20100;-92
2022/08/01 08:53:43;;;;;;;11.52;10.43;;;33.70;99.90;;;;;;4903174;29;20028;-92
2022/08/01 08:56:21;;;;;;;10.80;9.73;;;33.20;99.90;;;;;;4937890;23;20053;-93
2022/08/01 08:58:53;;;;;;;11.13;10.10;;;33.00;99.90;;;;;;4860514;29;20053;-93
2022/08/01 09:02:09;;;;;;;10.30;9.38;;;32.80;99.90;;;;;;4861225;29;20034;-93
2022/08/01 09:04:54;;;;;;;11.02;10.05;;;32.60;99.90;;;;;;4735452;30;20037;-92
2022/08/01 09:07:52;;;;;;;10.90;10.10;;;32.80;99.90;;;;;;4699528;30;20045;-92
2022/08/01 09:17:30;;;;;;;12.10;11.00;;;33.00;99.90;;;;;;5270579;23;20044;-92
2022/08/01 09:19:57;;;;;;;12.13;11.00;;;32.80;99.90;;;;;;4929670;23;20060;-93
2022/08/01 09:22:43;;;;;;;11.55;10.65;;;32.70;99.90;;;;;;4921811;29;20040;-92
2022/08/01 09:31:35;;;;;;;12.20;11.38;;;32.90;99.90;;;;;;5031878;23;20545;-93
2022/08/01 09:34:10;;;;;;;12.15;11.25;;;33.00;99.90;;;;;;5195136;23;20116;-93
2022/08/01 09:36:57;;;;;;;12.18;11.32;;;32.70;99.90;;;;;;4900261;29;20131;-92
2022/08/01 09:39:26;;;;;;;15.57;11.80;;;32.60;99.90;;;;;;4899679;29;20120;-93
2022/08/01 09:42:01;;;;;;;12.10;11.10;;;32.60;99.90;;;;;;4900970;29;20024;-91
2022/08/01 09:45:05;;;;;;;14.77;11.10;;;32.60;99.90;;;;;;4899316;29;20039;-91
2022/08/01 09:47:56;;;;;;;12.83;11.67;;;32.30;99.90;;;;;;4897517;29;20029;-92
2022/08/01 09:50:45;;;;;;;12.93;11.70;;;31.70;99.90;;;;;;4897607;29;20037;-91
2022/08/01 09:53:12;;;;;;;11.45;10.13;;;31.40;99.90;;;;;;4896209;29;20024;-92
2022/08/01 09:55:40;;;;;;;10.35;9.50;;;31.40;99.90;;;;;;4895753;29;20036;-93
2022/08/01 09:58:11;;;;;;;12.25;11.18;;;31.50;99.90;;;;;;4880797;29;20044;-92
2022/08/01 10:00:40;;;;;;;12.75;11.68;;;31.60;99.90;;;;;;4896491;29;20123;-92
2022/08/01 10:03:29;;;;;;;12.23;11.20;;;31.40;99.90;;;;;;4895042;29;20077;-92
2022/08/01 10:06:01;;;;;;;13.55;11.02;;;31.50;99.90;;;;;;4862612;29;20040;-92
2022/08/01 10:08:45;;;;;;;12.38;11.38;;;31.60;99.90;;;;;;4863587;29;20142;-92
2022/08/01 10:11:15;;;;;;;12.80;11.73;;;31.60;99.90;;;;;;4863479;29;20665;-93
2022/08/01 10:13:43;;;;;;;12.85;11.77;;;31.70;99.90;;;;;;4846313;29;20040;-93
2022/08/01 10:16:12;;;;;;;12.30;11.50;;;31.50;99.90;;;;;;4859074;29;20100;-93
2022/08/01 10:18:42;;;;;;;12.75;11.90;;;31.90;99.90;;;;;;4859142;29;20101;-92
2022/08/01 10:21:10;;;;;;;12.00;11.00;;;31.80;99.90;;;;;;4856283;29;20045;-92
2022/08/01 10:23:39;;;;;;;12.32;11.32;;;31.50;99.90;;;;;;4871685;29;20036;-91
2022/08/01 10:26:11;;;;;;;14.15;12.57;;;31.20;99.90;;;;;;4876778;29;20037;-92
2022/08/01 10:28:48;;;;;;;12.85;11.65;;;31.20;99.90;;;;;;4864005;29;20120;-93
2022/08/01 10:31:20;;;;;;;12.80;11.82;;;31.20;99.90;;;;;;4877248;29;20101;-93
2022/08/01 10:33:54;;;;;;;12.07;10.98;;;31.70;99.90;;;;;;4882478;29;20068;-94
2022/08/01 10:36:29;;;;;;;12.98;11.85;;;32.10;99.90;;;;;;4874633;29;20038;-92
2022/08/01 10:39:40;;;;;;;;;;;31.80;99.90;;;;;;4887950;29;20036;-92
2022/08/01 10:42:14;;;;;;;12.43;11.48;;;31.80;99.90;;;;;;4886774;29;19919;-92
2022/08/01 10:45:03;;;;;;;12.45;11.65;;;31.80;99.90;;;;;;4915069;29;20103;-93
2022/08/01 10:48:06;;;;;;;12.80;11.90;;;31.70;99.90;;;;;;4871013;29;20049;-91
2022/08/01 10:51:10;;;;;;;13.32;12.25;;;32.00;99.90;;;;;;4878988;29;20045;-91
2022/08/01 10:53:47;;;;;;;13.32;12.45;;;31.60;99.90;;;;;;4850660;29;20046;-94
2022/08/01 10:56:16;;;;;;;13.10;12.20;;;31.50;99.90;;;;;;4855085;29;20124;-91
2022/08/01 10:58:45;;;;;;;13.50;12.48;;;31.30;99.90;;;;;;4848964;29;20400;-91
2022/08/01 11:01:26;;;;;;;12.93;12.13;;;31.50;99.90;;;;;;4812312;29;20066;-90
2022/08/01 22:47:58;;;;;;;10.45;2.90;;;25.50;99.90;;;;;;5475288;23;20048;-92
2022/08/01 22:51:13;;;;;;;6.85;3.38;;;25.50;99.90;;;;;;4893801;29;20088;-93
2022/08/01 23:01:48;;;;;;;7.88;3.67;;;25.50;99.90;;;;;;4930206;23;20242;-94
2022/08/01 23:04:30;;;;;;;10.20;3.22;;;25.50;99.90;;;;;;4902568;29;20028;-93
2022/08/01 23:07:02;;;;;;;10.25;3.03;;;25.50;99.90;;;;;;4902955;29;20082;-93
2022/08/01 23:09:32;;;;;;;14.70;3.40;;;25.50;99.90;;;;;;4902489;29;20035;-93
2022/08/01 23:12:04;;;;;;;10.35;2.85;;;25.40;99.90;;;;;;4902660;29;20442;-92
2022/08/01 23:14:32;;;;;;;9.35;2.97;;;25.40;99.90;;;;;;4904595;29;20032;-93
2022/08/01 23:17:02;;;;;;;10.52;2.95;;;25.40;99.90;;;;;;4902271;29;20493;-92
2022/08/01 23:19:32;;;;;;;10.73;3.25;;;25.30;99.90;;;;;;4902685;29;20071;-92
2022/08/01 23:22:04;;;;;;;10.10;3.25;;;25.40;99.90;;;;;;4908374;29;20024;-92
2022/08/01 23:24:35;;;;;;;13.40;3.55;;;25.30;99.90;;;;;;4910727;29;20036;-93
2022/08/01 23:29:49;;;;;;;13.73;3.58;;;25.30;99.90;;;;;;4902690;29;20028;-93
2022/08/01 23:32:17;;;;;;;17.17;9.73;;;25.30;99.90;;;;;;4904454;29;20096;-92
2022/08/01 23:34:45;;;;;;;9.32;3.45;;;25.30;99.90;;;;;;4906410;29;20047;-93
2022/08/01 23:37:14;;;;;;;12.43;3.13;;;25.30;99.90;;;;;;4915475;29;20180;-92
2022/08/01 23:39:43;;;;;;;13.40;3.45;;;25.30;99.90;;;;;;4902197;29;20397;-93
2022/08/01 23:42:11;;;;;;;11.85;3.30;;;25.30;99.90;;;;;;4902569;29;20351;-93
2022/08/01 23:44:39;;;;;;;12.23;2.97;;;25.30;99.90;;;;;;4902740;29;20034;-92
2022/08/01 23:47:08;;;;;;;11.57;2.60;;;25.20;99.90;;;;;;4902181;29;20083;-93
2022/08/01 23:49:35;;;;;;;14.30;3.20;;;25.20;99.90;;;;;;4903070;29;20024;-93
2022/08/01 23:52:03;;;;;;;14.63;3.55;;;25.20;99.90;;;;;;4902842;29;20032;-93
2022/08/01 23:54:30;;;;;;;14.30;3.60;;;25.20;99.90;;;;;;4903192;29;20032;-92
2022/08/01 23:56:58;;;;;;;13.32;3.13;;;25.20;99.90;;;;;;4902379;29;20104;-92
2022/08/01 23:59:26;;;;;;;12.38;3.42;;;25.20;99.90;;;;;;4902637;29;20515;-94
